Pagrindinis puslapis
METAR-TAF:

METAR-TAF

Oro uostai :

Trat, Tailandas

platuma: 12-16-28N, ilguma: 102-19-08E, Aukštis: 32 m

Dabartinis oras

Ataskaita buvo paskelbta 2 valandos ir 11 minutes, ne 10:00 UTC
Vėjas 4 kt iš Šiaurės/Šiaurės Rytų
Temperatūra 31°C
Drėgmė 55%
Slėgis 1010 hPa
Matomumas: 7000 m
Mažai debesys ne aukštis 2500 ft

METAR: VTBO 151000Z 02004KT 7000 FEW025 31/21 Q1010

Laikas: 19:11 (12:11 UTC)

Prognozė

Ataskaita buvo paskelbta 1 valandą ir 11 minutes, ne 11:00 UTC
Prognozė galioja nuo 15 metu 12 UTC su 16 metu 12 UTC
Vėjas 5 kt iš Rytų/Šiaurės Rytų
Matomumas: 8000 m
Tapsmas
nuo 15 metu 14 UTC su 15 metu 16 UTC
Vėjas kt iš Šiaurės
Tapsmas
nuo 16 metu 02 UTC su 16 metu 04 UTC
Vėjas 8 kt iš Šiaurės Rytų

TAF: VTBO 151100Z 1512/1612 06005KT 8000 NSC BECMG 1514/1516 00000KT BECMG 1602/1604 05008KT

Orai ataskaitas ir orų prognozės (METAR, TAF).

turimą stotys yra geltonos ir raudonos taškus žemėlapyje.

Perkelti pele per norėdami pamatyti stoties vardą.

Tada spustelėkite, norėdami matyti oro stebėjimo ir prognozės.

Norėdami pakeisti žemėlapį: spustelėkite ant žalios mygtukų su juodo kryžiaus žemyn,; žalią mygtuką su brūkšneliu, jei norite nutolinti; arba žalių rodyklių gretimoms žemėlapius.


METAR-TAF: